sensor_id;sensor_type;location;lat;lon;timestamp;pressure;altitude;pressure_sealevel;temperature;humidity
80103;BME280;69865;47.648;19.030;2024-02-21T00:00:24;101262.72;;;7.25;88.89
80103;BME280;69865;47.648;19.030;2024-02-21T00:00:56;101265.44;;;7.23;88.71
80103;BME280;69865;47.648;19.030;2024-02-21T00:01:28;101267.28;;;7.21;89.06
80103;BME280;69865;47.648;19.030;2024-02-21T00:02:00;101267.88;;;7.26;88.88
80103;BME280;69865;47.648;19.030;2024-02-21T00:02:33;101261.97;;;7.23;88.60
80103;BME280;69865;47.648;19.030;2024-02-21T00:03:05;101267.41;;;7.20;88.95
80103;BME280;69865;47.648;19.030;2024-02-21T00:03:37;101267.53;;;7.17;88.79
80103;BME280;69865;47.648;19.030;2024-02-21T00:04:09;101259.53;;;7.20;89.01
80103;BME280;69865;47.648;19.030;2024-02-21T00:04:43;101249.31;;;7.15;89.18
80103;BME280;69865;47.648;19.030;2024-02-21T00:05:15;101257.06;;;7.17;89.25
80103;BME280;69865;47.648;19.030;2024-02-21T00:05:48;101258.03;;;7.16;89.24
80103;BME280;69865;47.648;19.030;2024-02-21T00:06:20;101260.47;;;7.19;89.00
80103;BME280;69865;47.648;19.030;2024-02-21T00:06:52;101263.16;;;7.17;89.57
80103;BME280;69865;47.648;19.030;2024-02-21T00:07:24;101258.03;;;7.16;89.57
80103;BME280;69865;47.648;19.030;2024-02-21T00:07:58;101257.25;;;7.14;89.54
80103;BME280;69865;47.648;19.030;2024-02-21T00:08:30;101253.63;;;7.16;89.33
80103;BME280;69865;47.648;19.030;2024-02-21T00:09:03;101257.00;;;7.18;89.27
80103;BME280;69865;47.648;19.030;2024-02-21T00:09:35;101251.94;;;7.15;89.73
80103;BME280;69865;47.648;19.030;2024-02-21T00:10:08;101248.41;;;7.16;89.64
80103;BME280;69865;47.648;19.030;2024-02-21T00:10:41;101254.44;;;7.17;89.65
80103;BME280;69865;47.648;19.030;2024-02-21T00:11:13;101257.00;;;7.18;89.43
80103;BME280;69865;47.648;19.030;2024-02-21T00:11:46;101260.53;;;7.17;89.60
80103;BME280;69865;47.648;19.030;2024-02-21T00:12:18;101254.38;;;7.18;89.37
80103;BME280;69865;47.648;19.030;2024-02-21T00:12:50;101252.59;;;7.19;89.25
80103;BME280;69865;47.648;19.030;2024-02-21T00:13:22;101253.63;;;7.16;89.37
80103;BME280;69865;47.648;19.030;2024-02-21T00:13:54;101246.50;;;7.18;89.71
80103;BME280;69865;47.648;19.030;2024-02-21T00:14:27;101249.06;;;7.20;89.23
80103;BME280;69865;47.648;19.030;2024-02-21T00:14:59;101253.44;;;7.19;89.59
80103;BME280;69865;47.648;19.030;2024-02-21T00:15:31;101248.28;;;7.18;89.71
80103;BME280;69865;47.648;19.030;2024-02-21T00:16:06;101243.97;;;7.17;89.75
80103;BME280;69865;47.648;19.030;2024-02-21T00:16:38;101248.28;;;7.18;89.72
80103;BME280;69865;47.648;19.030;2024-02-21T00:17:10;101247.44;;;7.17;89.38
80103;BME280;69865;47.648;19.030;2024-02-21T00:17:43;101246.44;;;7.20;89.56
80103;BME280;69865;47.648;19.030;2024-02-21T00:18:15;101248.28;;;7.18;89.87
80103;BME280;69865;47.648;19.030;2024-02-21T00:18:48;101242.31;;;7.16;89.47
80103;BME280;69865;47.648;19.030;2024-02-21T00:19:20;101239.84;;;7.13;89.96
80103;BME280;69865;47.648;19.030;2024-02-21T00:19:52;101243.41;;;7.12;89.41
80103;BME280;69865;47.648;19.030;2024-02-21T00:20:24;101248.72;;;7.10;90.14
80103;BME280;69865;47.648;19.030;2024-02-21T00:20:56;101235.75;;;7.08;89.88
80103;BME280;69865;47.648;19.030;2024-02-21T00:21:28;101240.03;;;7.09;89.88
80103;BME280;69865;47.648;19.030;2024-02-21T00:22:00;101231.69;;;7.03;89.84
80103;BME280;69865;47.648;19.030;2024-02-21T00:22:32;101240.03;;;7.09;89.95
80103;BME280;69865;47.648;19.030;2024-02-21T00:23:04;101238.19;;;7.12;89.63
80103;BME280;69865;47.648;19.030;2024-02-21T00:23:36;101231.06;;;7.14;89.58
80103;BME280;69865;47.648;19.030;2024-02-21T00:24:08;101237.22;;;7.13;89.71
80103;BME280;69865;47.648;19.030;2024-02-21T00:24:41;101238.00;;;7.15;89.77
80103;BME280;69865;47.648;19.030;2024-02-21T00:25:13;101232.75;;;7.15;89.66
80103;BME280;69865;47.648;19.030;2024-02-21T00:25:47;101231.84;;;7.16;88.97
80103;BME280;69865;47.648;19.030;2024-02-21T00:26:19;101229.38;;;7.13;89.46
80103;BME280;69865;47.648;19.030;2024-02-21T00:26:51;101223.19;;;7.14;89.40
80103;BME280;69865;47.648;19.030;2024-02-21T00:27:23;101230.22;;;7.13;89.51
80103;BME280;69865;47.648;19.030;2024-02-21T00:27:55;101236.56;;;7.09;89.25
80103;BME280;69865;47.648;19.030;2024-02-21T00:28:27;101233.00;;;7.10;89.64
80103;BME280;69865;47.648;19.030;2024-02-21T00:28:59;101238.25;;;7.10;89.29
80103;BME280;69865;47.648;19.030;2024-02-21T00:29:34;101232.69;;;7.16;89.21
80103;BME280;69865;47.648;19.030;2024-02-21T00:30:07;101230.22;;;7.13;89.11
80103;BME280;69865;47.648;19.030;2024-02-21T00:30:42;101222.47;;;7.12;89.32
80103;BME280;69865;47.648;19.030;2024-02-21T00:31:14;101226.66;;;7.14;89.53
80103;BME280;69865;47.648;19.030;2024-02-21T00:31:49;101225.81;;;7.14;88.98
80103;BME280;69865;47.648;19.030;2024-02-21T00:32:21;101226.59;;;7.16;89.05
80103;BME280;69865;47.648;19.030;2024-02-21T00:32:53;101224.03;;;7.14;88.87
80103;BME280;69865;47.648;19.030;2024-02-21T00:33:25;101226.84;;;7.11;88.84
80103;BME280;69865;47.648;19.030;2024-02-21T00:33:57;101233.78;;;7.12;88.64
80103;BME280;69865;47.648;19.030;2024-02-21T00:34:30;101229.47;;;7.11;88.67
80103;BME280;69865;47.648;19.030;2024-02-21T00:35:02;101226.59;;;7.16;88.77
80103;BME280;69865;47.648;19.030;2024-02-21T00:35:34;101217.88;;;7.15;88.76
80103;BME280;69865;47.648;19.030;2024-02-21T00:36:06;101221.50;;;7.13;88.29
80103;BME280;69865;47.648;19.030;2024-02-21T00:36:38;101222.19;;;7.16;88.56
80103;BME280;69865;47.648;19.030;2024-02-21T00:37:10;101222.34;;;7.13;88.24
80103;BME280;69865;47.648;19.030;2024-02-21T00:37:43;101223.31;;;7.12;87.88
80103;BME280;69865;47.648;19.030;2024-02-21T00:38:15;101225.16;;;7.10;88.24
80103;BME280;69865;47.648;19.030;2024-02-21T00:38:47;101232.09;;;7.11;87.94
80103;BME280;69865;47.648;19.030;2024-02-21T00:39:19;101225.09;;;7.12;88.23
80103;BME280;69865;47.648;19.030;2024-02-21T00:39:51;101225.81;;;7.14;88.02
80103;BME280;69865;47.648;19.030;2024-02-21T00:40:23;101227.59;;;7.13;87.85
80103;BME280;69865;47.648;19.030;2024-02-21T00:40:57;101222.34;;;7.13;87.34
80103;BME280;69865;47.648;19.030;2024-02-21T00:41:29;101224.97;;;7.13;87.33
80103;BME280;69865;47.648;19.030;2024-02-21T00:42:01;101222.47;;;7.12;87.35
80103;BME280;69865;47.648;19.030;2024-02-21T00:42:33;101217.22;;;7.12;87.42
80103;BME280;69865;47.648;19.030;2024-02-21T00:43:05;101218.06;;;7.12;87.55
80103;BME280;69865;47.648;19.030;2024-02-21T00:43:37;101224.97;;;7.13;87.32
80103;BME280;69865;47.648;19.030;2024-02-21T00:44:10;101220.69;;;7.12;87.24
80103;BME280;69865;47.648;19.030;2024-02-21T00:44:42;101227.50;;;7.15;87.43
80103;BME280;69865;47.648;19.030;2024-02-21T00:45:14;101213.50;;;7.16;86.97
80103;BME280;69865;47.648;19.030;2024-02-21T00:45:46;101217.03;;;7.15;86.70
80103;BME280;69865;47.648;19.030;2024-02-21T00:46:18;101219.84;;;7.12;86.93
80103;BME280;69865;47.648;19.030;2024-02-21T00:46:50;101213.75;;;7.11;87.16
80103;BME280;69865;47.648;19.030;2024-02-21T00:47:23;101220.78;;;7.11;86.33
80103;BME280;69865;47.648;19.030;2024-02-21T00:47:55;101215.53;;;7.11;86.53
80103;BME280;69865;47.648;19.030;2024-02-21T00:48:27;101222.47;;;7.12;86.60
80103;BME280;69865;47.648;19.030;2024-02-21T00:48:59;101218.06;;;7.12;86.41
80103;BME280;69865;47.648;19.030;2024-02-21T00:49:31;101220.69;;;7.12;85.93
80103;BME280;69865;47.648;19.030;2024-02-21T00:50:04;101225.09;;;7.12;85.83
80103;BME280;69865;47.648;19.030;2024-02-21T00:50:40;101215.53;;;7.11;85.40
80103;BME280;69865;47.648;19.030;2024-02-21T00:51:14;101224.13;;;7.13;85.33
80103;BME280;69865;47.648;19.030;2024-02-21T00:51:46;101221.44;;;7.14;84.92
80103;BME280;69865;47.648;19.030;2024-02-21T00:52:18;101223.97;;;7.16;85.31
80103;BME280;69865;47.648;19.030;2024-02-21T00:52:50;101228.19;;;7.18;85.26
80103;BME280;69865;47.648;19.030;2024-02-21T00:53:22;101216.00;;;7.17;85.21
80103;BME280;69865;47.648;19.030;2024-02-21T00:53:55;101223.00;;;7.17;85.01
80103;BME280;69865;47.648;19.030;2024-02-21T00:54:26;101229.88;;;7.19;85.12
80103;BME280;69865;47.648;19.030;2024-02-21T00:55:08;101220.59;;;7.14;85.10
80103;BME280;69865;47.648;19.030;2024-02-21T00:55:40;101226.59;;;7.16;85.08
80103;BME280;69865;47.648;19.030;2024-02-21T00:56:14;101233.41;;;7.18;85.09
80103;BME280;69865;47.648;19.030;2024-02-21T00:56:46;101221.91;;;7.21;84.86
80103;BME280;69865;47.648;19.030;2024-02-21T00:57:18;101229.59;;;7.24;84.92
80103;BME280;69865;47.648;19.030;2024-02-21T00:57:51;101233.41;;;7.18;84.64
80103;BME280;69865;47.648;19.030;2024-02-21T00:58:23;101233.34;;;7.20;85.20
80103;BME280;69865;47.648;19.030;2024-02-21T00:58:55;101235.00;;;7.21;85.09
80103;BME280;69865;47.648;19.030;2024-02-21T00:59:27;101237.53;;;7.22;84.75
80103;BME280;69865;47.648;19.030;2024-02-21T00:59:59;101233.41;;;7.18;84.01
80103;BME280;69865;47.648;19.030;2024-02-21T01:00:31;101229.28;;;7.14;84.33
80103;BME280;69865;47.648;19.030;2024-02-21T01:01:03;101236.22;;;7.15;84.65
80103;BME280;69865;47.648;19.030;2024-02-21T01:01:35;101237.81;;;7.18;84.55
80103;BME280;69865;47.648;19.030;2024-02-21T01:02:07;101236.13;;;7.17;84.56
80103;BME280;69865;47.648;19.030;2024-02-21T01:02:40;101235.97;;;7.20;84.05
80103;BME280;69865;47.648;19.030;2024-02-21T01:03:12;101234.84;;;7.24;84.27
80103;BME280;69865;47.648;19.030;2024-02-21T01:03:44;101237.63;;;7.21;84.46
80103;BME280;69865;47.648;19.030;2024-02-21T01:04:16;101233.69;;;7.14;84.27
80103;BME280;69865;47.648;19.030;2024-02-21T01:04:49;101234.59;;;7.13;83.93
80103;BME280;69865;47.648;19.030;2024-02-21T01:05:21;101240.13;;;7.08;84.51
80103;BME280;69865;47.648;19.030;2024-02-21T01:05:53;101229.53;;;7.09;84.19
80103;BME280;69865;47.648;19.030;2024-02-21T01:06:25;101226.19;;;7.07;83.98
80103;BME280;69865;47.648;19.030;2024-02-21T01:06:57;101229.72;;;7.06;84.04
80103;BME280;69865;47.648;19.030;2024-02-21T01:07:29;101222.47;;;7.12;84.13
80103;BME280;69865;47.648;19.030;2024-02-21T01:08:02;101236.41;;;7.12;84.08
80103;BME280;69865;47.648;19.030;2024-02-21T01:08:34;101227.69;;;7.12;84.18
80103;BME280;69865;47.648;19.030;2024-02-21T01:09:06;101229.22;;;7.16;83.93
80103;BME280;69865;47.648;19.030;2024-02-21T01:09:38;101226.41;;;7.19;83.66
80103;BME280;69865;47.648;19.030;2024-02-21T01:10:10;101226.31;;;7.20;83.15
80103;BME280;69865;47.648;19.030;2024-02-21T01:10:42;101227.13;;;7.21;83.34
80103;BME280;69865;47.648;19.030;2024-02-21T01:11:16;101225.47;;;7.20;83.85
80103;BME280;69865;47.648;19.030;2024-02-21T01:11:48;101227.13;;;7.21;83.43
80103;BME280;69865;47.648;19.030;2024-02-21T01:12:21;101225.94;;;7.12;83.50
80103;BME280;69865;47.648;19.030;2024-02-21T01:12:53;101230.22;;;7.13;83.12
80103;BME280;69865;47.648;19.030;2024-02-21T01:13:25;101223.84;;;7.17;82.87
80103;BME280;69865;47.648;19.030;2024-02-21T01:13:57;101229.69;;;7.22;82.37
80103;BME280;69865;47.648;19.030;2024-02-21T01:14:29;101231.38;;;7.23;82.30
80103;BME280;69865;47.648;19.030;2024-02-21T01:15:02;101222.41;;;7.27;82.41
80103;BME280;69865;47.648;19.030;2024-02-21T01:15:34;101230.53;;;7.23;82.14
80103;BME280;69865;47.648;19.030;2024-02-21T01:16:06;101230.53;;;7.23;82.48
80103;BME280;69865;47.648;19.030;2024-02-21T01:16:38;101234.75;;;7.25;82.01
80103;BME280;69865;47.648;19.030;2024-02-21T01:17:10;101231.47;;;7.22;82.02
80103;BME280;69865;47.648;19.030;2024-02-21T01:17:42;101234.00;;;7.23;81.89
80103;BME280;69865;47.648;19.030;2024-02-21T01:18:17;101227.84;;;7.24;82.09
80103;BME280;69865;47.648;19.030;2024-02-21T01:18:50;101230.47;;;7.24;81.90
80103;BME280;69865;47.648;19.030;2024-02-21T01:19:22;101231.19;;;7.26;81.71
80103;BME280;69865;47.648;19.030;2024-02-21T01:19:54;101227.72;;;7.26;81.77
80103;BME280;69865;47.648;19.030;2024-02-21T01:20:26;101230.16;;;7.29;82.05
80103;BME280;69865;47.648;19.030;2024-02-21T01:20:58;101224.25;;;7.25;82.03
80103;BME280;69865;47.648;19.030;2024-02-21T01:21:30;101225.22;;;7.24;82.41
80103;BME280;69865;47.648;19.030;2024-02-21T01:22:03;101220.78;;;7.25;81.44
80103;BME280;69865;47.648;19.030;2024-02-21T01:22:35;101229.75;;;7.21;82.40
80103;BME280;69865;47.648;19.030;2024-02-21T01:23:07;101235.78;;;7.23;82.21
80103;BME280;69865;47.648;19.030;2024-02-21T01:23:40;101222.84;;;7.20;82.23
80103;BME280;69865;47.648;19.030;2024-02-21T01:24:12;101224.72;;;7.18;82.40
80103;BME280;69865;47.648;19.030;2024-02-21T01:24:44;101230.97;;;7.15;82.66
80103;BME280;69865;47.648;19.030;2024-02-21T01:25:16;101219.47;;;7.18;82.49
80103;BME280;69865;47.648;19.030;2024-02-21T01:25:48;101230.59;;;7.21;82.90
80103;BME280;69865;47.648;19.030;2024-02-21T01:26:22;101228.94;;;7.20;82.58
80103;BME280;69865;47.648;19.030;2024-02-21T01:26:54;101232.56;;;7.18;82.67
80103;BME280;69865;47.648;19.030;2024-02-21T01:27:26;101228.00;;;7.21;82.40
80103;BME280;69865;47.648;19.030;2024-02-21T01:27:58;101229.75;;;7.21;82.10
80103;BME280;69865;47.648;19.030;2024-02-21T01:28:33;101233.06;;;7.24;82.44
80103;BME280;69865;47.648;19.030;2024-02-21T01:29:05;101229.69;;;7.22;82.21
80103;BME280;69865;47.648;19.030;2024-02-21T01:29:37;101214.81;;;7.23;82.40
80103;BME280;69865;47.648;19.030;2024-02-21T01:30:10;101226.81;;;7.27;81.60
80103;BME280;69865;47.648;19.030;2024-02-21T01:30:42;101225.22;;;7.24;82.03
80103;BME280;69865;47.648;19.030;2024-02-21T01:31:14;101230.78;;;7.18;82.48
80103;BME280;69865;47.648;19.030;2024-02-21T01:31:46;101220.41;;;7.17;82.35
80103;BME280;69865;47.648;19.030;2024-02-21T01:32:18;101222.00;;;7.19;82.21
80103;BME280;69865;47.648;19.030;2024-02-21T01:32:50;101213.13;;;7.22;81.94
80103;BME280;69865;47.648;19.030;2024-02-21T01:33:22;101225.94;;;7.26;81.81
80103;BME280;69865;47.648;19.030;2024-02-21T01:33:55;101220.72;;;7.26;81.85
80103;BME280;69865;47.648;19.030;2024-02-21T01:34:27;101219.13;;;7.24;81.87
80103;BME280;69865;47.648;19.030;2024-02-21T01:35:03;101217.34;;;7.24;81.97
80103;BME280;69865;47.648;19.030;2024-02-21T01:35:36;101218.16;;;7.25;81.92
80103;BME280;69865;47.648;19.030;2024-02-21T01:36:08;101201.91;;;7.20;81.71
80103;BME280;69865;47.648;19.030;2024-02-21T01:36:40;101220.78;;;7.25;81.93
80103;BME280;69865;47.648;19.030;2024-02-21T01:37:12;101207.81;;;7.23;81.93
80103;BME280;69865;47.648;19.030;2024-02-21T01:37:44;101220.78;;;7.25;81.77
80103;BME280;69865;47.648;19.030;2024-02-21T01:38:17;101208.47;;;7.27;81.44
80103;BME280;69865;47.648;19.030;2024-02-21T01:38:49;101211.16;;;7.25;81.61
80103;BME280;69865;47.648;19.030;2024-02-21T01:39:21;101210.41;;;7.23;81.72
80103;BME280;69865;47.648;19.030;2024-02-21T01:39:53;101215.84;;;7.20;82.05
80103;BME280;69865;47.648;19.030;2024-02-21T01:40:25;101209.84;;;7.18;82.13
80103;BME280;69865;47.648;19.030;2024-02-21T01:40:58;101207.81;;;7.23;81.61
80103;BME280;69865;47.648;19.030;2024-02-21T01:41:32;101206.19;;;7.21;81.42
80103;BME280;69865;47.648;19.030;2024-02-21T01:42:04;101213.97;;;7.22;81.69
80103;BME280;69865;47.648;19.030;2024-02-21T01:42:38;101211.41;;;7.21;81.86
80103;BME280;69865;47.648;19.030;2024-02-21T01:43:17;101204.53;;;7.20;81.79
80103;BME280;69865;47.648;19.030;2024-02-21T01:43:50;101209.66;;;7.21;82.22
80103;BME280;69865;47.648;19.030;2024-02-21T01:44:23;101216.59;;;7.22;81.91
80103;BME280;69865;47.648;19.030;2024-02-21T01:44:55;101211.34;;;7.22;81.52
80103;BME280;69865;47.648;19.030;2024-02-21T01:45:27;101212.38;;;7.20;81.51
80103;BME280;69865;47.648;19.030;2024-02-21T01:45:59;101214.03;;;7.21;81.47
80103;BME280;69865;47.648;19.030;2024-02-21T01:46:32;101211.34;;;7.22;81.38
80103;BME280;69865;47.648;19.030;2024-02-21T01:47:04;101214.63;;;7.26;81.18
80103;BME280;69865;47.648;19.030;2024-02-21T01:47:37;101216.25;;;7.28;81.23
80103;BME280;69865;47.648;19.030;2024-02-21T01:48:10;101204.41;;;7.21;81.43
80103;BME280;69865;47.648;19.030;2024-02-21T01:48:42;101207.22;;;7.18;81.40
80103;BME280;69865;47.648;19.030;2024-02-21T01:49:15;101207.03;;;7.21;81.39
80103;BME280;69865;47.648;19.030;2024-02-21T01:49:47;101209.56;;;7.23;81.31
80103;BME280;69865;47.648;19.030;2024-02-21T01:50:22;101207.13;;;7.20;81.44
80103;BME280;69865;47.648;19.030;2024-02-21T01:50:56;101211.72;;;7.16;81.93
80103;BME280;69865;47.648;19.030;2024-02-21T01:51:29;101207.47;;;7.14;81.91
80103;BME280;69865;47.648;19.030;2024-02-21T01:52:02;101207.66;;;7.11;82.38
80103;BME280;69865;47.648;19.030;2024-02-21T01:52:35;101206.75;;;7.12;82.68
80103;BME280;69865;47.648;19.030;2024-02-21T01:53:08;101215.34;;;7.14;82.50
80103;BME280;69865;47.648;19.030;2024-02-21T01:53:43;101209.44;;;7.10;82.75
80103;BME280;69865;47.648;19.030;2024-02-21T01:54:16;101212.91;;;7.11;82.89
80103;BME280;69865;47.648;19.030;2024-02-21T01:54:49;101213.75;;;7.11;82.93
80103;BME280;69865;47.648;19.030;2024-02-21T01:55:22;101216.56;;;7.08;83.04
80103;BME280;69865;47.648;19.030;2024-02-21T01:55:54;101211.41;;;7.06;83.01
80103;BME280;69865;47.648;19.030;2024-02-21T01:56:27;101211.66;;;7.02;82.98
80103;BME280;69865;47.648;19.030;2024-02-21T01:57:01;101213.53;;;7.00;83.13
80103;BME280;69865;47.648;19.030;2024-02-21T01:57:33;101220.44;;;7.01;82.67
80103;BME280;69865;47.648;19.030;2024-02-21T01:58:06;101226.53;;;7.01;82.72
80103;BME280;69865;47.648;19.030;2024-02-21T01:58:40;101220.44;;;7.01;82.57
80103;BME280;69865;47.648;19.030;2024-02-21T01:59:13;101220.56;;;6.99;81.88
80103;BME280;69865;47.648;19.030;2024-02-21T01:59:47;101224.75;;;7.02;81.24
80103;BME280;69865;47.648;19.030;2024-02-21T02:00:20;101220.56;;;6.99;81.22
80103;BME280;69865;47.648;19.030;2024-02-21T02:00:53;101222.25;;;7.00;81.24
80103;BME280;69865;47.648;19.030;2024-02-21T02:01:29;101224.88;;;7.00;81.20
80103;BME280;69865;47.648;19.030;2024-02-21T02:02:02;101224.28;;;6.95;81.38
80103;BME280;69865;47.648;19.030;2024-02-21T02:02:34;101225.19;;;6.94;81.86
80103;BME280;69865;47.648;19.030;2024-02-21T02:03:09;101226.91;;;6.95;81.75
80103;BME280;69865;47.648;19.030;2024-02-21T02:03:42;101225.00;;;6.97;81.33
80103;BME280;69865;47.648;19.030;2024-02-21T02:04:17;101224.16;;;6.97;81.33
80103;BME280;69865;47.648;19.030;2024-02-21T02:04:49;101224.16;;;6.97;81.06
80103;BME280;69865;47.648;19.030;2024-02-21T02:05:22;101226.13;;;6.93;81.55
80103;BME280;69865;47.648;19.030;2024-02-21T02:05:54;101221.72;;;6.94;81.25
80103;BME280;69865;47.648;19.030;2024-02-21T02:06:26;101225.19;;;6.94;81.14
80103;BME280;69865;47.648;19.030;2024-02-21T02:07:00;101223.34;;;6.96;81.63
80103;BME280;69865;47.648;19.030;2024-02-21T02:07:34;101229.50;;;6.95;81.42
80103;BME280;69865;47.648;19.030;2024-02-21T02:08:06;101224.28;;;6.95;81.03
80103;BME280;69865;47.648;19.030;2024-02-21T02:08:38;101227.75;;;6.96;81.20
80103;BME280;69865;47.648;19.030;2024-02-21T02:09:10;101227.63;;;6.97;81.08
80103;BME280;69865;47.648;19.030;2024-02-21T02:09:43;101227.81;;;6.94;81.37
80103;BME280;69865;47.648;19.030;2024-02-21T02:10:15;101229.59;;;6.94;81.68
80103;BME280;69865;47.648;19.030;2024-02-21T02:10:47;101224.47;;;6.92;81.37
80103;BME280;69865;47.648;19.030;2024-02-21T02:11:20;101232.47;;;6.89;81.69
80103;BME280;69865;47.648;19.030;2024-02-21T02:11:52;101230.69;;;6.90;81.83
80103;BME280;69865;47.648;19.030;2024-02-21T02:12:25;101223.03;;;6.87;81.79
80103;BME280;69865;47.648;19.030;2024-02-21T02:12:58;101229.84;;;6.89;81.92
80103;BME280;69865;47.648;19.030;2024-02-21T02:13:30;101225.47;;;6.90;81.75
80103;BME280;69865;47.648;19.030;2024-02-21T02:14:02;101228.19;;;6.88;81.79
80103;BME280;69865;47.648;19.030;2024-02-21T02:14:34;101230.69;;;6.90;81.99
80103;BME280;69865;47.648;19.030;2024-02-21T02:15:07;101231.53;;;6.90;82.22
80103;BME280;69865;47.648;19.030;2024-02-21T02:15:40;101229.78;;;6.91;82.17
80103;BME280;69865;47.648;19.030;2024-02-21T02:16:12;101223.69;;;6.90;82.02
80103;BME280;69865;47.648;19.030;2024-02-21T02:16:46;101233.31;;;6.90;82.13
80103;BME280;69865;47.648;19.030;2024-02-21T02:17:18;101226.50;;;6.87;82.27
80103;BME280;69865;47.648;19.030;2024-02-21T02:17:50;101223.75;;;6.89;82.20
80103;BME280;69865;47.648;19.030;2024-02-21T02:18:22;101227.34;;;6.88;82.10
80103;BME280;69865;47.648;19.030;2024-02-21T02:18:54;101229.84;;;6.89;82.23
80103;BME280;69865;47.648;19.030;2024-02-21T02:19:27;101227.41;;;6.86;82.25
80103;BME280;69865;47.648;19.030;2024-02-21T02:19:59;101237.16;;;6.84;82.16
80103;BME280;69865;47.648;19.030;2024-02-21T02:20:32;101226.81;;;6.81;82.45
80103;BME280;69865;47.648;19.030;2024-02-21T02:21:22;101227.66;;;6.82;82.47
80103;BME280;69865;47.648;19.030;2024-02-21T02:22:03;101227.00;;;6.78;82.10
80103;BME280;69865;47.648;19.030;2024-02-21T02:22:43;101223.91;;;6.72;82.42
80103;BME280;69865;47.648;19.030;2024-02-21T02:23:22;101230.72;;;6.74;82.02
80103;BME280;69865;47.648;19.030;2024-02-21T02:23:55;101235.88;;;6.76;81.85
80103;BME280;69865;47.648;19.030;2024-02-21T02:24:28;101227.09;;;6.77;81.75
80103;BME280;69865;47.648;19.030;2024-02-21T02:25:00;101227.84;;;6.79;81.44
80103;BME280;69865;47.648;19.030;2024-02-21T02:25:32;101231.13;;;6.82;81.14
80103;BME280;69865;47.648;19.030;2024-02-21T02:26:05;101232.91;;;6.82;81.24
80103;BME280;69865;47.648;19.030;2024-02-21T02:26:37;101230.28;;;6.82;81.43
80103;BME280;69865;47.648;19.030;2024-02-21T02:27:09;101227.59;;;6.83;81.11
80103;BME280;69865;47.648;19.030;2024-02-21T02:27:42;101235.34;;;6.85;81.35
80103;BME280;69865;47.648;19.030;2024-02-21T02:28:14;101239.47;;;6.89;81.15
80103;BME280;69865;47.648;19.030;2024-02-21T02:28:46;101233.41;;;6.88;81.38
80103;BME280;69865;47.648;19.030;2024-02-21T02:29:18;101234.25;;;6.89;81.76
80103;BME280;69865;47.648;19.030;2024-02-21T02:29:50;101234.41;;;6.86;81.60
80103;BME280;69865;47.648;19.030;2024-02-21T02:30:22;101226.31;;;6.90;81.70
80103;BME280;69865;47.648;19.030;2024-02-21T02:30:54;101235.19;;;6.88;81.07
80103;BME280;69865;47.648;19.030;2024-02-21T02:31:26;101234.16;;;6.90;80.54
80103;BME280;69865;47.648;19.030;2024-02-21T02:31:59;101235.34;;;6.85;80.82
80103;BME280;69865;47.648;19.030;2024-02-21T02:32:31;101225.91;;;6.82;81.03
80103;BME280;69865;47.648;19.030;2024-02-21T02:33:03;101232.56;;;6.88;80.50
80103;BME280;69865;47.648;19.030;2024-02-21T02:33:35;101232.47;;;6.89;80.32
80103;BME280;69865;47.648;19.030;2024-02-21T02:34:07;101238.66;;;6.88;80.31
80103;BME280;69865;47.648;19.030;2024-02-21T02:34:39;101229.97;;;6.88;80.25
80103;BME280;69865;47.648;19.030;2024-02-21T02:35:12;101231.63;;;6.89;80.11
80103;BME280;69865;47.648;19.030;2024-02-21T02:35:44;101235.09;;;6.89;80.10
80103;BME280;69865;47.648;19.030;2024-02-21T02:36:16;101231.72;;;6.87;80.77
80103;BME280;69865;47.648;19.030;2024-02-21T02:36:48;101237.03;;;6.86;79.69
80103;BME280;69865;47.648;19.030;2024-02-21T02:37:20;101237.97;;;6.85;80.53
80103;BME280;69865;47.648;19.030;2024-02-21T02:37:52;101235.34;;;6.85;80.16
80103;BME280;69865;47.648;19.030;2024-02-21T02:38:25;101232.84;;;6.83;80.67
80103;BME280;69865;47.648;19.030;2024-02-21T02:38:58;101233.94;;;6.79;80.21
80103;BME280;69865;47.648;19.030;2024-02-21T02:39:30;101232.25;;;6.78;81.00
80103;BME280;69865;47.648;19.030;2024-02-21T02:40:02;101235.63;;;6.80;80.61
80103;BME280;69865;47.648;19.030;2024-02-21T02:40:34;101234.25;;;6.73;80.67
80103;BME280;69865;47.648;19.030;2024-02-21T02:41:06;101238.50;;;6.76;80.71
80103;BME280;69865;47.648;19.030;2024-02-21T02:41:38;101229.81;;;6.75;80.75
80103;BME280;69865;47.648;19.030;2024-02-21T02:42:10;101229.81;;;6.75;81.09
80103;BME280;69865;47.648;19.030;2024-02-21T02:42:42;101231.50;;;6.76;80.87
80103;BME280;69865;47.648;19.030;2024-02-21T02:43:14;101234.25;;;6.73;80.77
80103;BME280;69865;47.648;19.030;2024-02-21T02:43:47;101230.72;;;6.74;80.70
80103;BME280;69865;47.648;19.030;2024-02-21T02:44:19;101228.34;;;6.70;81.47
80103;BME280;69865;47.648;19.030;2024-02-21T02:44:51;101236.31;;;6.68;81.12
80103;BME280;69865;47.648;19.030;2024-02-21T02:45:23;101233.53;;;6.71;81.30
80103;BME280;69865;47.648;19.030;2024-02-21T02:45:55;101234.97;;;6.77;81.51
80103;BME280;69865;47.648;19.030;2024-02-21T02:46:27;101232.34;;;6.77;81.11
80103;BME280;69865;47.648;19.030;2024-02-21T02:47:00;101229.13;;;6.72;81.31
80103;BME280;69865;47.648;19.030;2024-02-21T02:47:32;101233.44;;;6.73;81.47
80103;BME280;69865;47.648;19.030;2024-02-21T02:48:04;101233.25;;;6.76;81.09
80103;BME280;69865;47.648;19.030;2024-02-21T02:48:37;101237.56;;;6.77;81.50
80103;BME280;69865;47.648;19.030;2024-02-21T02:49:09;101235.03;;;6.75;81.49
80103;BME280;69865;47.648;19.030;2024-02-21T02:49:42;101233.16;;;6.77;81.88
80103;BME280;69865;47.648;19.030;2024-02-21T02:50:14;101234.84;;;6.78;81.77
80103;BME280;69865;47.648;19.030;2024-02-21T02:50:46;101229.72;;;6.77;81.50